Time;durP1;ratioP1;P1;durP2;ratioP2;P2;SDS_P1;SDS_P2;PMS_P1;PMS_P2;Temp;Humidity;BMP_temperature;BMP_pressure;BME280_temperature;BME280_humidity;BME280_pressure;Samples;Min_cycle;Max_cycle;Signal;HPM_P1;HPM_P2
2022/08/01 05:44:13;;;;;;;3.03;2.72;;;21.30;61.70;;;20.58;54.32;97751.13;5020744;28;20177;-39
2022/08/01 05:46:41;;;;;;;3.33;2.55;;;21.40;60.00;;;20.98;53.80;97748.06;5017647;28;20046;-39
2022/08/01 05:49:09;;;;;;;3.63;2.75;;;21.50;60.60;;;21.40;53.03;97748.16;5020205;28;20041;-39
2022/08/01 05:51:37;;;;;;;2.88;2.58;;;21.70;60.40;;;21.78;52.56;97756.00;5020519;28;20065;-39
2022/08/01 05:54:05;;;;;;;2.53;2.30;;;21.90;60.00;;;22.10;51.77;97758.47;5020392;28;20335;-39
2022/08/01 05:56:33;;;;;;;2.78;2.58;;;22.20;59.60;;;22.36;51.61;97757.22;5019649;28;20045;-39
2022/08/01 05:59:03;;;;;;;3.22;2.45;;;22.30;59.20;;;22.61;50.81;97754.28;5020524;28;20353;-39
2022/08/01 06:01:31;;;;;;;3.70;2.58;;;22.50;58.90;;;22.80;50.58;97763.13;5019570;28;20347;-39
2022/08/01 06:03:59;;;;;;;3.47;2.50;;;22.60;58.50;;;22.99;49.79;97754.84;5017884;28;20278;-39
2022/08/01 06:06:27;;;;;;;2.92;2.58;;;22.70;58.20;;;23.13;49.59;97759.00;5019157;28;20239;-39
2022/08/01 06:08:55;;;;;;;4.93;2.47;;;22.80;57.90;;;23.25;49.37;97750.81;5020210;28;20377;-39
2022/08/01 06:11:23;;;;;;;3.85;2.35;;;22.90;57.80;;;23.33;48.87;97753.16;5020068;28;20055;-39
2022/08/01 06:13:50;;;;;;;2.67;2.40;;;22.90;57.50;;;23.40;49.20;97758.47;5020338;28;20080;-39
2022/08/01 06:16:18;;;;;;;4.70;2.28;;;23.00;57.50;;;23.47;48.84;97753.69;5020535;28;20058;-39
2022/08/01 06:18:46;;;;;;;2.58;2.35;;;23.00;57.50;;;23.55;48.72;97758.78;5018867;28;20056;-39
2022/08/01 06:21:14;;;;;;;2.20;2.00;;;23.10;57.30;;;23.61;48.48;97748.78;5020996;28;20375;-39
2022/08/01 06:23:42;;;;;;;2.33;2.13;;;23.10;57.20;;;23.66;48.32;97753.53;5019689;28;20045;-39
2022/08/01 06:26:10;;;;;;;2.90;2.60;;;23.10;57.20;;;23.69;48.25;97756.59;5019699;28;20042;-39
2022/08/01 06:28:39;;;;;;;2.28;2.05;;;23.20;57.10;;;23.76;48.31;97751.81;5018991;28;20054;-39
2022/08/01 06:31:06;;;;;;;5.00;2.70;;;23.20;57.00;;;23.84;48.49;97752.53;5018359;28;20232;-39
2022/08/01 06:33:34;;;;;;;2.67;2.22;;;23.30;56.90;;;23.88;48.15;97757.22;5019667;28;20252;-39
2022/08/01 06:36:09;;;;;;;3.22;2.30;;;23.30;56.80;;;23.92;47.97;97760.28;5018691;28;20092;-39
2022/08/01 06:38:37;;;;;;;2.35;2.15;;;23.40;56.80;;;23.94;47.83;97749.97;5019111;28;20057;-39
2022/08/01 06:41:11;;;;;;;2.72;2.33;;;23.40;57.40;;;24.00;47.97;97757.19;5006734;28;20068;-39
2022/08/01 06:43:42;;;;;;;3.35;2.25;;;23.50;56.60;;;24.11;47.67;97755.44;4980645;28;20060;-39
2022/08/01 06:46:10;;;;;;;3.88;3.03;;;23.60;56.40;;;24.17;48.25;97762.63;5000194;28;20046;-39
2022/08/01 06:48:39;;;;;;;2.13;1.90;;;23.70;56.70;;;24.22;47.84;97764.63;4998784;28;20049;-39
2022/08/01 06:51:13;;;;;;;3.75;2.30;;;23.60;56.70;;;24.28;47.71;97766.34;4998873;28;20046;-39
2022/08/01 06:53:41;;;;;;;2.47;2.28;;;23.70;56.50;;;24.29;47.54;97759.81;4996423;28;20046;-39
2022/08/01 06:56:11;;;;;;;3.30;2.25;;;23.70;56.80;;;24.32;47.58;97762.88;4986881;28;20068;-39
2022/08/01 06:58:39;;;;;;;3.15;2.47;;;23.70;56.60;;;24.40;47.61;97771.69;4985916;28;20054;-39
2022/08/01 07:01:07;;;;;;;2.55;2.10;;;23.80;56.60;;;24.42;47.36;97775.00;4986568;28;20057;-39
2022/08/01 07:03:36;;;;;;;2.65;2.45;;;23.70;56.30;;;24.46;47.40;97776.97;4986405;28;20705;-39
2022/08/01 07:06:25;;;;;;;2.50;2.10;;;23.90;56.30;;;24.58;47.26;97773.38;4986499;28;20043;-39
2022/08/01 07:08:56;;;;;;;3.28;2.40;;;24.00;55.80;;;24.63;47.08;97768.81;4987023;28;20339;-39
2022/08/01 07:11:30;;;;;;;3.22;2.40;;;24.10;55.90;;;24.69;46.80;97765.09;4985201;28;20482;-39
2022/08/01 07:13:58;;;;;;;3.22;2.22;;;24.00;55.60;;;24.65;47.34;97766.69;4986157;28;20062;-39
2022/08/01 07:16:27;;;;;;;2.40;2.03;;;24.00;56.10;;;24.72;46.85;97761.91;4969690;28;20046;-39
2022/08/01 07:18:55;;;;;;;3.10;2.20;;;24.00;55.70;;;24.75;46.88;97763.28;4986017;28;20054;-39
2022/08/01 07:21:22;;;;;;;2.70;2.40;;;24.00;55.70;;;24.82;46.95;97772.13;4986177;28;20058;-39
2022/08/01 07:24:12;;;;;;;2.28;1.80;;;24.20;55.50;;;24.94;46.16;97774.72;4985808;28;20054;-39
2022/08/01 07:26:48;;;;;;;2.58;2.33;;;24.40;54.60;;;24.96;45.80;97765.22;4986467;28;20050;-39
2022/08/01 07:29:25;;;;;;;2.22;1.88;;;24.20;54.00;;;24.93;45.81;97773.91;4988450;28;20061;-39
2022/08/01 07:31:55;;;;;;;2.58;2.38;;;24.20;54.40;;;24.90;45.51;97768.13;4985977;28;20056;-39
2022/08/01 07:34:25;;;;;;;3.67;2.10;;;24.10;54.30;;;24.86;45.82;97767.00;4985811;28;20426;-39
2022/08/01 07:36:53;;;;;;;4.70;2.45;;;24.10;54.70;;;24.81;45.67;97765.00;4985079;28;20054;-39
2022/08/01 07:39:21;;;;;;;3.08;2.75;;;23.90;55.00;;;24.70;46.04;97764.03;4983254;28;20372;-39
2022/08/01 07:41:49;;;;;;;5.07;2.17;;;23.80;55.30;;;24.70;46.07;97765.94;4985229;28;20062;-39
2022/08/01 07:44:35;;;;;;;3.15;2.80;;;23.90;55.40;;;24.75;46.27;97755.13;4985451;28;20042;-39
2022/08/01 07:47:04;;;;;;;4.18;2.58;;;24.00;55.30;;;24.79;46.02;97756.25;4985777;28;20483;-39
2022/08/01 07:49:33;;;;;;;4.45;2.75;;;23.80;55.00;;;24.77;46.13;97753.78;4986759;28;20047;-39
2022/08/01 07:52:07;;;;;;;3.03;2.72;;;24.00;55.30;;;24.73;46.38;97755.38;4971014;28;20055;-39
2022/08/01 07:54:36;;;;;;;3.15;2.60;;;23.90;55.40;;;24.76;46.24;97754.88;4986612;28;20344;-39
2022/08/01 07:57:04;;;;;;;3.08;2.65;;;24.10;55.10;;;24.80;46.21;97754.38;4986130;28;20054;-39
2022/08/01 07:59:32;;;;;;;5.10;2.65;;;24.10;54.90;;;24.84;46.24;97752.81;4991616;28;20060;-39
2022/08/01 08:02:00;;;;;;;3.85;2.20;;;24.20;54.70;;;24.82;46.03;97752.25;5038513;28;20400;-39
2022/08/01 08:04:29;;;;;;;4.75;2.35;;;24.10;54.90;;;24.83;46.07;97759.31;5045079;28;20040;-40
2022/08/01 08:06:57;;;;;;;3.63;2.63;;;24.10;54.50;;;24.88;45.81;97756.69;5046389;28;20045;-40
2022/08/01 08:09:24;;;;;;;2.63;2.20;;;24.30;54.30;;;24.93;45.73;97754.84;5045451;28;20040;-40
2022/08/01 08:11:52;;;;;;;3.05;2.75;;;24.20;54.20;;;24.93;45.71;97757.56;5043664;28;20476;-40
2022/08/01 08:14:22;;;;;;;3.50;2.47;;;24.20;54.20;;;24.90;45.62;97763.50;5047838;28;20237;-40
2022/08/01 08:16:59;;;;;;;2.95;2.60;;;24.20;54.40;;;24.86;46.16;97754.19;5063124;28;20046;-40
2022/08/01 08:19:29;;;;;;;2.95;2.65;;;24.10;54.90;;;24.92;45.94;97749.66;5085940;28;20054;-40
2022/08/01 08:22:07;;;;;;;3.03;2.25;;;24.30;54.60;;;24.97;46.01;97747.00;5087372;28;20759;-40
2022/08/01 08:24:36;;;;;;;3.10;2.67;;;24.30;54.60;;;25.06;45.83;97740.03;5087791;28;20040;-40
2022/08/01 08:27:14;;;;;;;4.03;2.40;;;24.50;54.30;;;25.13;45.73;97745.31;5087285;28;20060;-40
2022/08/01 08:29:42;;;;;;;2.60;2.40;;;24.50;54.80;;;25.16;45.63;97739.34;5087552;28;20052;-40
2022/08/01 08:32:12;;;;;;;3.38;2.45;;;24.60;53.90;;;25.19;45.84;97747.00;5087668;28;20430;-40
2022/08/01 08:34:40;;;;;;;5.63;2.60;;;24.60;54.20;;;25.30;45.84;97747.97;5087421;28;20052;-40
2022/08/01 08:37:08;;;;;;;3.22;2.55;;;24.80;53.90;;;25.41;45.58;97749.75;5087057;28;20234;-40
2022/08/01 08:39:36;;;;;;;2.92;2.63;;;24.90;53.50;;;25.48;45.09;97749.56;5087346;28;20223;-40
2022/08/01 08:42:12;;;;;;;4.43;3.03;;;25.00;53.20;;;25.53;45.01;97747.72;5087020;28;20050;-40
2022/08/01 08:44:42;;;;;;;3.40;2.65;;;25.00;52.80;;;25.55;45.16;97739.28;5087009;28;20040;-40
2022/08/01 08:47:14;;;;;;;4.70;2.90;;;25.00;53.00;;;25.61;45.29;97745.59;5086093;28;20250;-40
2022/08/01 08:49:51;;;;;;;3.53;2.67;;;25.10;53.20;;;25.65;44.96;97749.47;5086776;28;20056;-40
2022/08/01 08:52:20;;;;;;;3.33;2.65;;;25.10;53.00;;;25.67;44.97;97747.34;5086082;28;20046;-40
2022/08/01 08:54:51;;;;;;;5.63;3.58;;;25.10;53.20;;;25.75;44.63;97746.88;5086953;28;20478;-40
2022/08/01 08:57:21;;;;;;;3.70;3.40;;;25.20;52.40;;;25.77;44.36;97755.63;5086045;28;20338;-40
2022/08/01 08:59:51;;;;;;;6.82;4.72;;;25.20;52.20;;;25.71;44.26;97753.91;5086784;28;20051;-40
2022/08/01 09:02:21;;;;;;;5.22;4.60;;;25.10;52.20;;;25.72;44.42;97750.09;5084804;28;20066;-39
2022/08/01 09:04:51;;;;;;;5.50;4.30;;;25.10;52.40;;;25.75;44.50;97757.78;5087255;28;20054;-39
2022/08/01 09:07:19;;;;;;;4.10;3.67;;;25.20;52.60;;;25.81;44.32;97750.47;5086548;28;20052;-39
2022/08/01 09:09:48;;;;;;;4.95;4.50;;;25.20;52.50;;;25.86;43.75;97762.25;5085431;28;20258;-40
2022/08/01 09:12:20;;;;;;;6.25;4.90;;;25.20;51.40;;;25.89;43.97;97760.91;5086181;28;20058;-39
2022/08/01 09:14:49;;;;;;;4.65;4.22;;;25.20;51.60;;;25.95;43.73;97754.44;5086491;28;20225;-39
2022/08/01 09:17:18;;;;;;;6.03;4.47;;;25.40;51.30;;;26.04;43.96;97757.56;5086258;28;20056;-39
2022/08/01 09:19:51;;;;;;;4.55;4.15;;;25.50;50.70;;;26.07;43.36;97762.47;5085654;28;20056;-40
2022/08/01 09:22:23;;;;;;;7.68;5.03;;;25.50;50.60;;;26.02;43.20;97755.06;5059361;28;20058;-39
2022/08/01 09:25:06;;;;;;;4.93;4.22;;;25.40;50.60;;;26.08;43.09;97754.03;4985452;28;20529;-39
2022/08/01 09:27:37;;;;;;;6.85;4.32;;;25.50;50.30;;;26.17;43.21;97759.00;4984277;28;20360;-39
2022/08/01 09:30:15;;;;;;;4.50;3.63;;;25.60;50.40;;;26.05;42.64;97756.44;4983777;28;20064;-39
2022/08/01 09:32:57;;;;;;;5.07;4.57;;;25.30;50.50;;;26.07;43.03;97763.28;4984442;28;20256;-40
2022/08/01 09:35:34;;;;;;;4.78;4.28;;;25.30;50.40;;;26.03;42.83;97761.34;4983434;28;20058;-39
2022/08/01 09:38:21;;;;;;;5.30;3.90;;;25.20;50.70;;;26.02;43.16;97767.91;4984406;28;20062;-39
2022/08/01 09:41:01;;;;;;;2.72;2.45;;;25.20;50.80;;;26.09;42.60;97766.59;4984762;28;20365;-39
2022/08/01 09:43:31;;;;;;;4.00;3.25;;;25.50;50.40;;;26.20;42.82;97772.16;4983991;28;20054;-39
2022/08/01 09:46:10;;;;;;;2.75;2.50;;;25.60;49.50;;;26.23;42.18;97768.88;4965885;28;20060;-39
2022/08/01 09:48:55;;;;;;;3.17;2.90;;;25.60;49.30;;;26.31;42.57;97757.50;4984596;28;20411;-39
2022/08/01 09:51:38;;;;;;;2.60;2.30;;;25.80;49.40;;;26.41;41.61;97764.97;4984018;28;20052;-39
2022/08/01 09:54:33;;;;;;;3.13;2.83;;;25.90;48.20;;;26.48;41.87;97760.09;4984584;28;20057;-39
2022/08/01 09:57:16;;;;;;;2.42;2.22;;;25.90;48.20;;;26.47;42.05;97753.81;4984648;28;20343;-39
2022/08/01 09:59:48;;;;;;;4.82;2.90;;;25.90;48.40;;;26.47;42.30;97761.19;4984042;28;20050;-39
2022/08/01 10:02:39;;;;;;;2.63;2.40;;;25.90;48.90;;;26.48;41.88;97754.63;4967986;28;20062;-39
2022/08/01 10:05:10;;;;;;;3.28;2.45;;;25.80;48.80;;;26.53;41.94;97749.22;4983817;28;20236;-39
2022/08/01 10:08:03;;;;;;;4.47;3.03;;;25.90;48.80;;;26.59;42.10;97740.00;4983663;28;20054;-39
2022/08/01 10:10:34;;;;;;;3.58;2.85;;;26.10;48.40;;;26.59;41.97;97748.19;4984678;28;20054;-39
2022/08/01 10:13:04;;;;;;;3.53;2.72;;;26.00;48.90;;;26.60;41.54;97744.38;4985463;28;20055;-39
2022/08/01 10:15:36;;;;;;;4.50;2.63;;;26.10;48.50;;;26.68;41.59;97740.34;4967977;28;20054;-39
2022/08/01 10:18:08;;;;;;;2.65;2.45;;;26.20;48.30;;;26.71;41.20;97742.53;4984239;28;21107;-39
2022/08/01 10:20:54;;;;;;;3.60;2.67;;;26.20;48.10;;;26.64;41.14;97733.78;4968768;28;20054;-39
2022/08/01 10:23:34;;;;;;;2.88;2.63;;;26.00;48.10;;;26.55;41.41;97751.69;4984717;28;20356;-40
2022/08/01 10:26:11;;;;;;;4.43;2.63;;;25.90;47.70;;;26.55;40.67;97738.03;4983272;28;20054;-39
2022/08/01 10:28:48;;;;;;;3.20;2.78;;;25.80;47.50;;;26.57;40.99;97727.69;4983853;28;20057;-40
2022/08/01 10:31:17;;;;;;;6.55;3.05;;;25.80;47.50;;;26.61;40.45;97737.00;4969314;28;20057;-39
2022/08/01 10:33:58;;;;;;;3.65;3.17;;;26.00;47.80;;;26.70;41.11;97735.44;4972076;28;20046;-39
2022/08/01 10:36:26;;;;;;;2.50;2.30;;;26.20;47.50;;;26.79;40.40;97731.09;4988023;28;20061;-39
2022/08/01 10:38:55;;;;;;;3.13;2.60;;;26.30;46.40;;;26.79;40.40;97725.66;4970558;28;20050;-39
2022/08/01 10:41:25;;;;;;;3.47;3.00;;;26.20;46.40;;;26.82;40.39;97724.31;4986645;28;20073;-39
2022/08/01 10:43:55;;;;;;;3.85;2.80;;;26.30;46.50;;;26.90;40.65;97729.28;4987919;28;20050;-39
2022/08/01 10:46:24;;;;;;;2.97;2.47;;;26.40;46.60;;;26.99;40.19;97733.16;4986702;28;20054;-39
2022/08/01 10:48:59;;;;;;;2.65;2.35;;;26.50;46.00;;;27.00;39.94;97731.22;4986024;28;20058;-39
2022/08/01 10:51:28;;;;;;;3.95;2.55;;;26.50;45.60;;;27.04;39.78;97718.69;4968857;28;20055;-39
2022/08/01 10:54:16;;;;;;;3.30;3.00;;;26.60;46.00;;;27.09;39.52;97730.47;4972830;28;20056;-39
2022/08/01 10:56:48;;;;;;;3.30;3.00;;;26.60;45.80;;;27.07;39.72;97723.63;4986448;28;20058;-39
2022/08/01 10:59:26;;;;;;;2.92;2.63;;;26.50;45.80;;;27.05;39.99;97712.97;4986339;28;20054;-39
2022/08/01 11:02:31;;;;;;;4.45;3.63;;;26.40;46.00;;;27.08;40.07;97714.31;4986291;28;20062;-39
2022/08/01 11:05:09;;;;;;;3.30;2.80;;;26.60;45.60;;;27.17;39.65;97707.28;4986270;28;20390;-39
2022/08/01 11:07:52;;;;;;;3.75;3.30;;;26.70;45.60;;;27.29;39.69;97710.63;4970504;28;20048;-39
2022/08/01 11:10:37;;;;;;;4.90;3.75;;;26.90;45.50;;;27.38;39.41;97715.59;4972334;28;20061;-39
2022/08/01 11:13:08;;;;;;;3.95;3.20;;;27.00;45.10;;;27.29;39.30;97709.81;4986836;28;20340;-39
2022/08/01 11:15:36;;;;;;;4.00;3.63;;;26.70;45.30;;;27.29;39.42;97705.16;4969794;28;20068;-39
2022/08/01 11:18:26;;;;;;;4.10;3.55;;;26.70;44.70;;;27.29;38.99;97707.06;4985834;28;20600;-39
2022/08/01 11:21:01;;;;;;;3.90;3.60;;;26.70;45.10;;;27.32;39.72;97695.63;4986744;28;20058;-39
2022/08/01 11:23:53;;;;;;;5.30;3.47;;;26.80;45.60;;;27.46;39.81;97694.00;4985823;28;20070;-39
2022/08/01 11:26:22;;;;;;;4.03;3.63;;;27.00;45.70;;;27.49;38.85;97690.75;4988746;28;20372;-39
2022/08/01 11:29:15;;;;;;;4.90;4.32;;;27.10;44.60;;;27.48;38.09;97700.03;4985808;28;20054;-39
2022/08/01 11:31:51;;;;;;;4.85;4.43;;;27.00;43.40;;;27.56;38.55;97687.72;4987565;28;20456;-39
2022/08/01 11:34:19;;;;;;;4.78;3.63;;;27.20;43.80;;;27.71;38.00;97683.41;4988260;28;20054;-39
2022/08/01 11:36:48;;;;;;;4.50;3.65;;;27.40;42.60;;;27.85;37.17;97690.78;4986641;28;20060;-39
2022/08/01 11:39:26;;;;;;;4.15;3.75;;;27.60;42.60;;;27.98;36.98;97672.25;4987087;28;20287;-39
2022/08/01 11:42:20;;;;;;;4.13;3.83;;;27.70;42.20;;;28.14;37.49;97681.25;4985027;28;20211;-39
2022/08/01 11:44:50;;;;;;;4.38;3.97;;;27.90;41.60;;;28.23;37.52;97685.91;4984554;28;20340;-39
2022/08/01 11:47:18;;;;;;;3.40;3.00;;;27.80;41.90;;;28.23;37.66;97694.13;4985815;28;20046;-39
2022/08/01 11:49:54;;;;;;;4.32;3.35;;;27.80;42.70;;;28.21;37.07;97704.53;4985875;28;20050;-39
2022/08/01 11:52:31;;;;;;;4.25;3.88;;;27.70;42.70;;;28.16;37.48;97690.81;4983859;28;20264;-39
2022/08/01 11:55:01;;;;;;;4.57;4.18;;;27.60;43.20;;;28.06;37.88;97682.63;4977059;28;20600;-39
2022/08/01 11:57:36;;;;;;;4.47;4.07;;;27.40;43.80;;;28.07;37.90;97689.72;4985030;28;20060;-39
2022/08/01 12:00:16;;;;;;;4.45;4.05;;;27.50;43.90;;;28.08;37.74;97678.50;4985409;28;20064;-39
2022/08/01 12:02:46;;;;;;;3.60;3.30;;;27.50;43.50;;;27.99;37.79;97671.94;4985785;28;20048;-39
2022/08/01 12:05:20;;;;;;;2.90;2.60;;;27.40;43.30;;;28.02;37.13;97663.19;4984462;28;20247;-39
2022/08/01 12:07:53;;;;;;;3.30;3.00;;;27.50;43.00;;;28.08;37.29;97669.50;4984064;28;20465;-39
2022/08/01 12:10:24;;;;;;;3.60;2.80;;;27.50;41.90;;;28.03;36.85;97648.44;4985184;28;20046;-39
2022/08/01 12:13:01;;;;;;;6.47;2.85;;;27.50;42.60;;;28.14;37.70;97648.44;4986435;28;20046;-38
2022/08/01 12:15:37;;;;;;;4.85;3.00;;;27.70;43.20;;;28.18;37.52;97642.13;4985310;28;20080;-39
2022/08/01 12:18:07;;;;;;;3.42;2.70;;;27.80;42.70;;;28.28;36.61;97658.53;4985742;28;20468;-39
2022/08/01 12:20:41;;;;;;;3.70;3.03;;;27.80;41.40;;;28.42;36.59;97639.63;4985185;28;20576;-39
2022/08/01 12:23:24;;;;;;;5.35;2.72;;;28.10;42.00;;;28.61;36.70;97644.53;4987287;28;20054;-39
2022/08/01 12:25:53;;;;;;;4.85;3.45;;;28.40;41.50;;;28.64;36.58;97641.25;4984097;28;20264;-39
2022/08/01 12:28:21;;;;;;;3.90;3.30;;;28.30;42.00;;;28.76;36.76;97655.44;4983916;28;20046;-39
2022/08/01 12:30:49;;;;;;;4.05;3.10;;;28.50;41.70;;;28.81;36.55;97651.88;4984271;28;20084;-39
2022/08/01 12:33:20;;;;;;;3.63;3.33;;;28.40;41.50;;;28.74;36.29;97656.81;4986407;28;20062;-39
2022/08/01 12:35:48;;;;;;;4.20;3.22;;;28.20;41.80;;;28.77;36.69;97650.78;4984005;28;20064;-39
2022/08/01 12:38:24;;;;;;;4.13;3.08;;;28.30;42.30;;;28.78;36.56;97650.50;4984298;28;20050;-39
2022/08/01 12:40:52;;;;;;;3.33;2.60;;;28.30;42.00;;;28.71;36.43;97657.38;4985734;28;20050;-39
2022/08/01 12:43:25;;;;;;;2.90;2.63;;;28.00;41.70;;;28.48;36.81;97657.69;4985076;28;20050;-40
2022/08/01 12:46:01;;;;;;;3.50;3.20;;;27.70;42.90;;;28.45;36.91;97644.53;4984320;28;20056;-39
2022/08/01 12:48:31;;;;;;;4.07;2.65;;;27.80;43.00;;;28.51;36.28;97655.47;4984447;28;20057;-39
2022/08/01 12:51:01;;;;;;;3.65;3.35;;;27.90;41.40;;;28.55;36.02;97643.72;4967949;28;20379;-39
2022/08/01 12:53:34;;;;;;;3.50;2.95;;;28.10;41.80;;;28.73;36.59;97639.56;4986149;28;20073;-39
2022/08/01 12:56:09;;;;;;;3.38;3.00;;;28.40;41.40;;;28.84;35.67;97629.38;4969918;28;20058;-39
2022/08/01 12:58:38;;;;;;;3.13;2.83;;;28.50;40.80;;;28.92;35.71;97642.50;4984188;28;20058;-38
2022/08/01 13:01:11;;;;;;;3.15;2.88;;;28.60;40.10;;;28.97;35.54;97637.00;4983270;28;20351;-38
2022/08/01 13:03:40;;;;;;;3.38;2.83;;;28.60;40.00;;;28.99;34.97;97637.53;4984161;28;20058;-38
2022/08/01 13:06:14;;;;;;;4.28;3.95;;;28.50;39.50;;;29.01;35.15;97643.56;4968319;28;20050;-38
2022/08/01 13:08:45;;;;;;;3.67;3.13;;;28.60;39.80;;;29.08;35.40;97634.22;4984490;28;20060;-38
2022/08/01 13:11:15;;;;;;;4.05;2.90;;;28.70;40.10;;;29.25;36.02;97637.44;4983160;28;20061;-38
2022/08/01 13:13:50;;;;;;;4.30;2.78;;;29.00;41.00;;;29.58;36.12;97640.53;4984434;28;20064;-40
2022/08/01 13:16:25;;;;;;;3.58;3.20;;;29.50;40.00;;;29.85;35.61;97634.59;4969273;28;20394;-40
2022/08/01 13:19:13;;;;;;;5.55;2.85;;;29.90;38.80;;;30.06;34.77;97631.69;4983671;28;20057;-40
2022/08/01 13:21:55;;;;;;;6.53;4.07;;;30.00;39.00;;;30.22;34.43;97630.44;4984510;28;20054;-40
2022/08/01 13:24:26;;;;;;;5.03;2.92;;;30.10;38.00;;;30.41;34.44;97636.03;4984102;28;20068;-39
2022/08/01 13:27:02;;;;;;;3.83;3.53;;;30.40;38.60;;;30.58;33.93;97641.91;4984274;28;20056;-40
2022/08/01 13:29:34;;;;;;;4.13;2.63;;;30.50;37.60;;;30.65;33.59;97632.47;4986286;28;20063;-39
2022/08/01 13:32:22;;;;;;;3.25;2.95;;;30.40;37.60;;;30.70;33.43;97632.44;4998648;28;20054;-39
2022/08/01 13:35:09;;;;;;;3.70;2.90;;;30.30;37.20;;;30.72;33.62;97621.97;5003846;28;20050;-39
2022/08/01 13:37:39;;;;;;;3.20;2.88;;;30.30;37.80;;;30.83;33.09;97631.72;4985434;28;20324;-39
2022/08/01 13:40:10;;;;;;;3.30;3.00;;;30.50;37.20;;;30.67;32.58;97633.84;5004440;28;20053;-39
2022/08/01 13:42:38;;;;;;;3.70;3.40;;;30.00;37.40;;;30.79;32.77;97630.69;5003433;28;20278;-39
2022/08/01 13:45:09;;;;;;;3.65;2.85;;;30.30;37.80;;;30.85;32.44;97626.75;5004321;28;20057;-40
2022/08/01 13:47:43;;;;;;;3.72;3.10;;;30.20;37.90;;;31.03;32.00;97627.13;5004666;28;20231;-40
2022/08/01 13:50:31;;;;;;;3.95;3.10;;;30.50;36.50;;;30.94;32.03;97622.28;5018221;28;20050;-39
2022/08/01 13:52:59;;;;;;;3.95;3.20;;;30.20;37.20;;;30.81;32.54;97620.22;5003566;28;20406;-42
2022/08/01 13:55:27;;;;;;;4.35;2.83;;;30.00;37.70;;;30.85;32.31;97618.50;5003277;28;20054;-41
2022/08/01 13:58:02;;;;;;;2.40;2.20;;;30.10;37.40;;;30.98;32.23;97627.97;5003170;28;20042;-41
2022/08/01 14:00:30;;;;;;;3.03;2.83;;;30.50;37.00;;;31.13;32.32;97633.28;5002601;28;20042;-41
2022/08/01 14:02:58;;;;;;;3.03;2.72;;;30.80;36.50;;;31.16;32.16;97632.72;5003516;28;20115;-41
2022/08/01 14:05:26;;;;;;;3.45;3.15;;;30.80;36.50;;;31.26;31.91;97626.25;5006616;28;20058;-41
2022/08/01 14:07:54;;;;;;;3.40;2.92;;;30.80;35.40;;;31.15;31.66;97627.50;5006357;28;20041;-41
2022/08/01 14:10:26;;;;;;;4.38;3.25;;;30.20;36.50;;;31.07;31.74;97619.91;5007489;28;20702;-41
2022/08/01 14:12:57;;;;;;;4.32;2.70;;;30.30;36.80;;;31.04;32.00;97617.75;5007859;28;20343;-41
2022/08/01 14:15:25;;;;;;;4.45;3.33;;;30.30;37.10;;;30.97;31.98;97618.13;5006413;28;20068;-41
2022/08/01 14:18:08;;;;;;;4.07;2.95;;;30.10;36.90;;;31.01;32.36;97606.22;5007077;28;20045;-41
2022/08/01 14:20:38;;;;;;;3.47;3.00;;;30.30;37.60;;;31.23;31.62;97617.78;5006658;28;20362;-41
2022/08/01 14:23:07;;;;;;;4.47;3.00;;;30.70;35.90;;;31.29;31.40;97611.06;5006413;28;20058;-41
2022/08/01 14:25:41;;;;;;;3.38;3.08;;;30.30;35.80;;;31.42;31.18;97604.84;5006990;28;20225;-41
2022/08/01 14:28:29;;;;;;;4.03;3.50;;;30.70;35.90;;;31.29;31.36;97606.41;5006538;28;20058;-41
2022/08/01 14:30:58;;;;;;;3.55;2.78;;;30.40;36.30;;;31.27;31.38;97611.41;5006877;28;20362;-41
2022/08/01 14:33:27;;;;;;;3.30;2.97;;;30.30;35.90;;;31.16;30.89;97616.22;4989000;28;20064;-41
2022/08/01 14:35:55;;;;;;;3.33;2.80;;;30.20;36.30;;;30.90;31.05;97601.16;5006950;28;20050;-41
2022/08/01 14:38:33;;;;;;;3.95;2.90;;;29.80;36.50;;;30.94;31.13;97614.03;5006942;28;20064;-41
2022/08/01 14:41:03;;;;;;;3.15;2.85;;;30.10;36.80;;;30.89;31.58;97613.25;5006143;28;20629;-41
2022/08/01 14:43:33;;;;;;;3.75;2.72;;;29.90;36.40;;;30.86;31.76;97609.16;5006338;28;20267;-41
2022/08/01 14:46:03;;;;;;;3.83;3.00;;;30.00;37.00;;;31.00;31.31;97601.06;5005745;28;20068;-41
2022/08/01 14:48:32;;;;;;;3.33;3.03;;;30.40;36.10;;;31.18;31.10;97594.72;5006135;28;20056;-41
2022/08/01 14:51:02;;;;;;;3.45;2.83;;;30.70;35.50;;;31.47;31.32;97598.50;5006228;28;20049;-41
2022/08/01 14:53:32;;;;;;;3.88;2.47;;;31.10;35.60;;;31.84;30.18;97599.56;5005868;28;20072;-41
2022/08/01 14:56:04;;;;;;;3.10;2.90;;;31.40;34.20;;;31.94;30.29;97594.69;5005818;28;20054;-41
2022/08/01 14:58:32;;;;;;;3.95;3.40;;;31.50;34.40;;;32.08;29.64;97599.44;5005558;28;20062;-41
2022/08/01 15:01:00;;;;;;;2.88;2.63;;;31.60;33.90;;;32.07;28.89;97600.56;5005540;28;20060;-41
2022/08/01 15:03:28;;;;;;;4.30;3.03;;;31.30;33.20;;;32.05;28.49;97613.78;4974042;28;20062;-41
2022/08/01 15:05:56;;;;;;;2.70;2.50;;;31.30;33.30;;;32.13;29.03;97597.41;4986286;28;20050;-41
2022/08/01 15:08:24;;;;;;;2.75;2.55;;;31.50;33.50;;;32.42;29.08;97604.59;4985923;28;20050;-40
2022/08/01 15:10:52;;;;;;;3.40;2.50;;;32.00;32.80;;;32.37;28.76;97588.97;4985501;28;20068;-41
2022/08/01 15:13:20;;;;;;;3.92;2.50;;;31.60;33.40;;;32.46;29.26;97591.84;4986675;28;20564;-41
2022/08/01 15:15:47;;;;;;;4.22;2.58;;;31.70;32.50;;;32.16;28.86;97596.81;4986103;28;20549;-40
2022/08/01 15:18:15;;;;;;;3.67;2.40;;;30.80;33.20;;;32.14;29.24;97599.06;4986255;28;20278;-41
2022/08/01 15:37:19;;;;;;;2.63;2.42;;;29.20;36.50;;;29.26;32.78;97611.69;5104170;27;20154;-40
2022/08/01 15:39:47;;;;;;;4.28;2.53;;;29.10;37.00;;;29.36;32.87;97613.53;5083894;28;20067;-41
2022/08/01 15:42:17;;;;;;;4.30;2.58;;;29.00;37.30;;;29.43;32.71;97617.59;5084113;28;20234;-41
2022/08/01 15:44:51;;;;;;;5.47;3.03;;;28.90;37.00;;;29.71;32.26;97617.13;5099329;28;20054;-41
2022/08/01 15:47:19;;;;;;;2.80;2.50;;;29.10;36.80;;;29.82;31.87;97605.00;5079826;28;20056;-39
2022/08/01 15:49:49;;;;;;;4.72;2.28;;;29.20;36.50;;;30.00;31.66;97606.22;5081072;28;20067;-40
2022/08/01 15:52:19;;;;;;;4.70;3.30;;;29.40;36.30;;;30.11;31.53;97612.41;5082768;28;20054;-40
2022/08/01 15:54:49;;;;;;;2.70;2.20;;;29.50;35.80;;;30.09;31.67;97623.69;5083332;28;20793;-40
2022/08/01 15:57:17;;;;;;;2.90;2.60;;;29.30;36.40;;;30.08;31.50;97613.81;5083646;28;20048;-41
2022/08/01 15:59:45;;;;;;;3.72;2.20;;;29.20;36.40;;;30.10;31.43;97616.28;5083021;28;20050;-41
2022/08/01 16:02:13;;;;;;;2.38;2.10;;;29.40;36.40;;;30.08;31.60;97608.31;5083310;28;20044;-41
2022/08/01 16:04:41;;;;;;;3.25;2.78;;;29.30;36.50;;;30.03;31.74;97605.63;5098714;28;20191;-41
2022/08/01 16:07:10;;;;;;;2.10;2.00;;;29.30;36.40;;;29.95;31.62;97609.00;5097694;28;20056;-41
2022/08/01 16:09:38;;;;;;;2.53;2.33;;;29.10;36.70;;;29.97;31.54;97607.63;5082950;28;20067;-41
2022/08/01 16:12:06;;;;;;;3.05;2.35;;;29.10;36.70;;;29.97;31.68;97604.03;5083438;28;20066;-41
2022/08/01 16:14:35;;;;;;;2.83;2.42;;;29.20;36.50;;;30.04;31.22;97615.50;5099010;28;20745;-41
2022/08/01 16:17:03;;;;;;;2.92;2.63;;;29.10;35.90;;;30.05;31.53;97600.69;5083127;28;20044;-41
2022/08/01 16:19:31;;;;;;;2.58;2.35;;;29.30;36.30;;;30.04;31.80;97601.78;5081595;28;20050;-41
2022/08/01 16:21:58;;;;;;;2.17;1.70;;;29.30;36.90;;;30.16;31.76;97612.38;5082702;28;20042;-41
2022/08/01 16:24:29;;;;;;;3.10;2.22;;;29.50;36.70;;;30.27;32.35;97608.41;5083647;28;20044;-41
2022/08/01 16:26:57;;;;;;;2.03;1.90;;;29.60;36.50;;;30.31;31.55;97609.50;5082237;28;20058;-41
2022/08/01 16:29:29;;;;;;;2.03;1.73;;;29.60;36.20;;;30.36;31.83;97603.97;5083211;28;20636;-41
2022/08/01 16:31:57;;;;;;;3.37;2.07;;;29.70;36.30;;;30.39;31.59;97605.31;5082503;28;20419;-41
2022/08/01 16:34:38;;;;;;;4.22;2.50;;;29.60;36.10;;;30.31;31.73;97603.19;5083727;28;20048;-41
2022/08/01 16:37:14;;;;;;;2.30;2.10;;;29.40;36.50;;;30.14;31.73;97606.34;5081803;28;20060;-41
2022/08/01 16:39:41;;;;;;;2.53;2.13;;;29.10;37.10;;;29.99;31.71;97612.78;5082725;28;20048;-41
2022/08/01 16:42:09;;;;;;;2.40;2.17;;;29.00;37.50;;;29.83;32.09;97620.34;5080429;28;20051;-41